createdAt,value
2019-03-25T00:00:37.810Z,1017.42
2019-03-25T00:01:37.769Z,1017.40
2019-03-25T00:02:37.745Z,1017.35
2019-03-25T00:03:37.699Z,1017.35
2019-03-25T00:04:37.625Z,1017.31
2019-03-25T00:05:37.582Z,1017.34
2019-03-25T00:06:37.558Z,1017.33
2019-03-25T00:07:37.530Z,1017.29
2019-03-25T00:08:37.459Z,1017.30
2019-03-25T00:09:37.430Z,1017.27
2019-03-25T00:10:37.365Z,1017.28
2019-03-25T00:11:37.316Z,1017.23
2019-03-25T00:12:37.281Z,1017.20
2019-03-25T00:13:37.262Z,1017.19
2019-03-25T00:14:37.192Z,1017.18
2019-03-25T00:15:37.161Z,1017.14
2019-03-25T00:16:37.096Z,1017.15
2019-03-25T00:17:37.063Z,1017.10
2019-03-25T00:18:37.035Z,1017.10
2019-03-25T00:19:36.965Z,1017.07
2019-03-25T00:20:36.935Z,1017.08
2019-03-25T00:21:36.886Z,1017.05
2019-03-25T00:22:36.839Z,1017.07
2019-03-25T00:23:36.804Z,1017.05
2019-03-25T00:24:38.990Z,1017.05
2019-03-25T00:25:36.720Z,1017.03
2019-03-25T00:26:36.656Z,1016.98
2019-03-25T00:27:36.635Z,1016.97
2019-03-25T00:28:36.575Z,1016.95
2019-03-25T00:29:36.526Z,1016.92
2019-03-25T00:30:36.514Z,1016.92
2019-03-25T00:31:36.453Z,1016.94
2019-03-25T00:32:36.392Z,1016.87
2019-03-25T00:33:36.354Z,1016.85
2019-03-25T00:34:36.306Z,1016.92
2019-03-25T00:35:36.279Z,1016.85
2019-03-25T00:36:36.236Z,1016.82
2019-03-25T00:37:36.172Z,1016.85
2019-03-25T00:38:36.196Z,1016.82
2019-03-25T00:39:36.089Z,1016.87
2019-03-25T00:40:36.067Z,1016.79
2019-03-25T00:41:35.991Z,1016.84
2019-03-25T00:42:35.958Z,1016.79
2019-03-25T00:43:35.915Z,1016.78
2019-03-25T00:44:35.865Z,1016.80
2019-03-25T00:45:35.819Z,1016.77
2019-03-25T00:46:35.831Z,1016.79
2019-03-25T00:47:35.739Z,1016.74
2019-03-25T00:48:35.685Z,1016.72
2019-03-25T00:49:35.634Z,1016.71
2019-03-25T00:50:35.599Z,1016.74
2019-03-25T00:51:35.549Z,1016.68
2019-03-25T00:52:35.540Z,1016.65
2019-03-25T00:53:35.468Z,1016.71
2019-03-25T00:54:35.406Z,1016.69
2019-03-25T00:55:35.398Z,1016.75
2019-03-25T00:56:35.327Z,1016.64
2019-03-25T00:57:35.316Z,1016.65
2019-03-25T00:58:35.242Z,1016.63
2019-03-25T00:59:35.193Z,1016.58
2019-03-25T01:00:35.136Z,1016.56
2019-03-25T01:01:35.125Z,1016.56
2019-03-25T01:02:35.098Z,1016.59
2019-03-25T01:03:35.039Z,1016.59
2019-03-25T01:04:34.969Z,1016.52
2019-03-25T01:05:34.936Z,1016.47
2019-03-25T01:06:34.896Z,1016.52
2019-03-25T01:07:34.870Z,1016.46
2019-03-25T01:08:34.816Z,1016.49
2019-03-25T01:09:34.762Z,1016.50
2019-03-25T01:10:34.722Z,1016.51
2019-03-25T01:11:34.683Z,1016.52
2019-03-25T01:12:34.625Z,1016.48
2019-03-25T01:13:34.615Z,1016.41
2019-03-25T01:14:34.556Z,1016.44
2019-03-25T01:15:34.482Z,1016.34
2019-03-25T01:16:34.449Z,1016.36
2019-03-25T01:17:34.477Z,1016.36
2019-03-25T01:18:34.358Z,1016.33
2019-03-25T01:19:34.357Z,1016.36
2019-03-25T01:20:34.269Z,1016.37
2019-03-25T01:21:34.234Z,1016.33
2019-03-25T01:22:34.185Z,1016.33
2019-03-25T01:23:34.141Z,1016.27
2019-03-25T01:24:34.083Z,1016.26
2019-03-25T01:25:34.078Z,1016.21
2019-03-25T01:26:34.002Z,1016.19
2019-03-25T01:27:33.966Z,1016.22
2019-03-25T01:28:33.923Z,1016.16
2019-03-25T01:29:33.865Z,1016.18
2019-03-25T01:30:33.850Z,1016.16
2019-03-25T01:31:33.799Z,1016.16
2019-03-25T01:32:33.739Z,1016.11
2019-03-25T01:33:33.717Z,1016.09
2019-03-25T01:34:33.654Z,1016.13
2019-03-25T01:35:33.650Z,1016.09
2019-03-25T01:36:33.563Z,1016.12
2019-03-25T01:37:33.516Z,1016.03
2019-03-25T01:38:33.471Z,1016.05
2019-03-25T01:39:33.431Z,1016.01
2019-03-25T01:40:33.466Z,1015.99
2019-03-25T01:41:33.412Z,1016.01
2019-03-25T01:42:33.301Z,1015.97
2019-03-25T01:43:33.263Z,1015.95
2019-03-25T01:44:33.202Z,1015.88
2019-03-25T01:45:33.167Z,1015.90
2019-03-25T01:46:33.145Z,1015.88
2019-03-25T01:47:33.108Z,1015.89
2019-03-25T01:48:33.028Z,1015.89
2019-03-25T01:49:33.013Z,1015.88
2019-03-25T01:50:32.957Z,1015.88
2019-03-25T01:51:32.894Z,1015.84
2019-03-25T01:52:32.884Z,1015.81
2019-03-25T01:53:32.852Z,1015.78
2019-03-25T01:54:32.759Z,1015.83
2019-03-25T01:55:32.710Z,1015.82
2019-03-25T01:56:32.675Z,1015.81
2019-03-25T01:57:32.660Z,1015.73
2019-03-25T01:58:32.612Z,1015.73
2019-03-25T01:59:32.534Z,1015.76
2019-03-25T02:00:32.503Z,1015.69
2019-03-25T02:01:32.479Z,1015.75
2019-03-25T02:02:32.418Z,1015.73
2019-03-25T02:03:32.404Z,1015.72
2019-03-25T02:04:32.328Z,1015.63
2019-03-25T02:05:32.321Z,1015.66
2019-03-25T02:06:32.264Z,1015.63
2019-03-25T02:07:32.196Z,1015.61
2019-03-25T02:08:32.146Z,1015.60
2019-03-25T02:09:32.136Z,1015.58
2019-03-25T02:10:32.064Z,1015.54
2019-03-25T02:11:32.055Z,1015.55
2019-03-25T02:12:31.971Z,1015.55
2019-03-25T02:13:31.936Z,1015.60
2019-03-25T02:14:31.883Z,1015.57
2019-03-25T02:15:31.871Z,1015.51
2019-03-25T02:16:31.810Z,1015.51
2019-03-25T02:17:31.771Z,1015.50
2019-03-25T02:18:31.724Z,1015.49
2019-03-25T02:19:31.666Z,1015.48
2019-03-25T02:20:31.625Z,1015.43
2019-03-25T02:21:31.589Z,1015.42
2019-03-25T02:22:31.600Z,1015.41
2019-03-25T02:23:31.495Z,1015.36
2019-03-25T02:24:31.461Z,1015.45
2019-03-25T02:25:31.389Z,1015.39
2019-03-25T02:26:31.372Z,1015.36
2019-03-25T02:27:31.334Z,1015.42
2019-03-25T02:28:31.266Z,1015.36
2019-03-25T02:29:31.233Z,1015.36
2019-03-25T02:30:31.176Z,1015.34
2019-03-25T02:31:31.124Z,1015.34
2019-03-25T02:32:31.120Z,1015.26
2019-03-25T02:33:31.071Z,1015.29
2019-03-25T02:34:31.010Z,1015.30
2019-03-25T02:35:30.966Z,1015.25
2019-03-25T02:36:30.922Z,1015.32
2019-03-25T02:37:30.942Z,1015.27
2019-03-25T02:38:30.850Z,1015.26
2019-03-25T02:39:30.801Z,1015.24
2019-03-25T02:40:30.752Z,1015.23
2019-03-25T02:41:30.707Z,1015.23
2019-03-25T02:42:30.661Z,1015.18
2019-03-25T02:43:30.653Z,1015.17
2019-03-25T02:44:30.566Z,1015.21
2019-03-25T02:45:30.533Z,1015.14
2019-03-25T02:46:30.476Z,1015.20
2019-03-25T02:47:30.434Z,1015.18
2019-03-25T02:48:30.409Z,1015.08
2019-03-25T02:49:30.373Z,1015.09
2019-03-25T02:50:30.296Z,1015.10
2019-03-25T02:51:30.256Z,1015.11
2019-03-25T02:52:30.229Z,1015.09
2019-03-25T02:53:30.173Z,1015.08
2019-03-25T02:54:30.154Z,1015.05
2019-03-25T02:55:41.638Z,1015.03
2019-03-25T02:56:30.032Z,1015.02
2019-03-25T02:57:30.031Z,1014.97
2019-03-25T02:58:29.957Z,1014.99
2019-03-25T02:59:29.910Z,1014.98
2019-03-25T03:00:29.925Z,1014.95
2019-03-25T03:01:29.834Z,1014.98
2019-03-25T03:02:29.774Z,1014.91
2019-03-25T03:03:29.733Z,1014.93
2019-03-25T03:04:29.693Z,1014.93
2019-03-25T03:05:29.670Z,1014.87
2019-03-25T03:06:29.633Z,1014.88
2019-03-25T03:07:29.581Z,1014.85
2019-03-25T03:08:29.521Z,1014.81
2019-03-25T03:09:29.468Z,1014.78
2019-03-25T03:10:29.417Z,1014.79
2019-03-25T03:11:29.423Z,1014.84
2019-03-25T03:12:29.336Z,1014.80
2019-03-25T03:13:29.314Z,1014.77
2019-03-25T03:14:29.262Z,1014.78
2019-03-25T03:15:29.215Z,1014.77
2019-03-25T03:16:29.164Z,1014.70
2019-03-25T03:17:29.150Z,1014.77
2019-03-25T03:18:29.078Z,1014.75
2019-03-25T03:19:29.041Z,1014.69
2019-03-25T03:20:28.993Z,1014.66
2019-03-25T03:21:28.983Z,1014.63
2019-03-25T03:22:28.904Z,1014.60
2019-03-25T03:23:28.857Z,1014.57
2019-03-25T03:24:28.819Z,1014.56
2019-03-25T03:25:28.786Z,1014.53
2019-03-25T03:26:28.746Z,1014.56
2019-03-25T03:27:30.095Z,1014.52
2019-03-25T03:28:28.637Z,1014.57
2019-03-25T03:29:28.610Z,1014.62
2019-03-25T03:30:28.574Z,1014.52
2019-03-25T03:31:28.527Z,1014.49
2019-03-25T03:32:28.506Z,1014.50
2019-03-25T03:33:28.461Z,1014.48
2019-03-25T03:34:28.521Z,1014.47
2019-03-25T03:35:28.397Z,1014.43
2019-03-25T03:36:28.325Z,1014.50
2019-03-25T03:37:28.320Z,1014.49
2019-03-25T03:38:28.265Z,1014.51
2019-03-25T03:39:28.184Z,1014.52
2019-03-25T03:40:28.155Z,1014.43
2019-03-25T03:41:28.114Z,1014.47
2019-03-25T03:42:28.051Z,1014.51
2019-03-25T03:43:28.018Z,1014.47
2019-03-25T03:44:27.982Z,1014.51
2019-03-25T03:45:27.899Z,1014.50
2019-03-25T03:46:27.890Z,1014.44
2019-03-25T03:47:27.823Z,1014.46
2019-03-25T03:48:27.809Z,1014.47
2019-03-25T03:49:27.732Z,1014.39
2019-03-25T03:50:27.713Z,1014.44
2019-03-25T03:51:27.649Z,1014.38
2019-03-25T03:52:27.618Z,1014.40
2019-03-25T03:53:27.563Z,1014.41
2019-03-25T03:54:27.544Z,1014.34
2019-03-25T03:55:27.470Z,1014.38
2019-03-25T03:56:27.453Z,1014.41
2019-03-25T03:57:27.407Z,1014.38
2019-03-25T03:58:27.362Z,1014.46
2019-03-25T03:59:27.328Z,1014.48
2019-03-25T04:00:27.275Z,1014.43
2019-03-25T04:01:27.195Z,1014.47
2019-03-25T04:02:27.176Z,1014.44
2019-03-25T04:03:27.122Z,1014.33
2019-03-25T04:04:27.095Z,1014.48
2019-03-25T04:05:27.061Z,1014.47
2019-03-25T04:06:26.988Z,1014.47
2019-03-25T04:07:27.000Z,1014.46
2019-03-25T04:08:26.922Z,1014.43
2019-03-25T04:09:26.904Z,1014.41
2019-03-25T04:10:26.824Z,1014.51
2019-03-25T04:11:26.777Z,1014.46
2019-03-25T04:12:26.739Z,1014.44
2019-03-25T04:13:26.741Z,1014.47
2019-03-25T04:14:26.686Z,1014.46
2019-03-25T04:15:26.624Z,1014.46
2019-03-25T04:16:26.578Z,1014.48
2019-03-25T04:17:26.512Z,1014.52
2019-03-25T04:18:26.496Z,1014.51
2019-03-25T04:19:26.437Z,1014.51
2019-03-25T04:20:26.407Z,1014.56
2019-03-25T04:21:26.365Z,1014.50
2019-03-25T04:22:26.297Z,1014.53
2019-03-25T04:23:26.263Z,1014.54
2019-03-25T04:24:26.205Z,1014.53
2019-03-25T04:25:26.213Z,1014.62
2019-03-25T04:26:28.849Z,1014.63
2019-03-25T04:27:26.082Z,1014.57
2019-03-25T04:28:26.064Z,1014.60
2019-03-25T04:29:25.991Z,1014.66
2019-03-25T04:30:26.004Z,1014.62
2019-03-25T04:31:25.904Z,1014.58
2019-03-25T04:32:25.868Z,1014.58
2019-03-25T04:33:25.811Z,1014.51
2019-03-25T04:34:25.820Z,1014.59
2019-03-25T04:35:25.726Z,1014.64
2019-03-25T04:36:25.734Z,1014.53
2019-03-25T04:37:25.662Z,1014.53
2019-03-25T04:38:25.612Z,1014.52
2019-03-25T04:39:25.576Z,1014.55
2019-03-25T04:40:25.519Z,1014.59
2019-03-25T04:41:25.477Z,1014.53
2019-03-25T04:42:25.444Z,1014.55
2019-03-25T04:43:25.440Z,1014.53
2019-03-25T04:44:25.410Z,1014.55
2019-03-25T04:45:25.306Z,1014.54
2019-03-25T04:46:25.253Z,1014.57
2019-03-25T04:47:25.209Z,1014.55
2019-03-25T04:48:25.164Z,1014.55
2019-03-25T04:49:25.171Z,1014.59
2019-03-25T04:50:25.100Z,1014.61
2019-03-25T04:51:25.024Z,1014.58
2019-03-25T04:52:24.989Z,1014.59
2019-03-25T04:53:24.940Z,1014.59
2019-03-25T04:54:24.935Z,1014.56
2019-03-25T04:55:24.857Z,1014.64
2019-03-25T04:56:24.842Z,1014.56
2019-03-25T04:57:24.815Z,1014.58
2019-03-25T04:58:24.729Z,1014.52
2019-03-25T04:59:24.683Z,1014.60
2019-03-25T05:00:24.675Z,1014.59
2019-03-25T05:01:24.602Z,1014.58
2019-03-25T05:02:24.557Z,1014.57
2019-03-25T05:03:24.545Z,1014.54
2019-03-25T05:04:24.495Z,1014.52
2019-03-25T05:05:24.491Z,1014.55
2019-03-25T05:06:24.407Z,1014.56
2019-03-25T05:07:24.363Z,1014.55
2019-03-25T05:08:24.312Z,1014.51
2019-03-25T05:09:33.122Z,1014.50
2019-03-25T05:10:24.205Z,1014.57
2019-03-25T05:11:30.538Z,1014.55
2019-03-25T05:12:24.111Z,1014.55
2019-03-25T05:13:24.061Z,1014.52
2019-03-25T05:14:24.052Z,1014.51
2019-03-25T05:15:23.982Z,1014.49
2019-03-25T05:16:23.959Z,1014.55
2019-03-25T05:17:23.876Z,1014.52
2019-03-25T05:18:23.852Z,1014.53
2019-03-25T05:19:23.831Z,1014.59
2019-03-25T05:20:23.780Z,1014.58
2019-03-25T05:21:23.808Z,1014.55
2019-03-25T05:22:23.701Z,1014.59
2019-03-25T05:23:23.654Z,1014.57
2019-03-25T05:24:23.616Z,1014.54
2019-03-25T05:25:23.610Z,1014.63
2019-03-25T05:26:23.493Z,1014.61
2019-03-25T05:27:23.457Z,1014.64
2019-03-25T05:28:23.431Z,1014.65
2019-03-25T05:29:23.358Z,1014.64
2019-03-25T05:30:23.346Z,1014.67
2019-03-25T05:31:23.321Z,1014.70
2019-03-25T05:32:23.331Z,1014.73
2019-03-25T05:33:23.249Z,1014.71
2019-03-25T05:34:23.167Z,1014.72
2019-03-25T05:35:23.123Z,1014.70
2019-03-25T05:36:23.074Z,1014.74
2019-03-25T05:37:23.048Z,1014.79
2019-03-25T05:38:23.001Z,1014.80
2019-03-25T05:39:22.960Z,1014.79
2019-03-25T05:40:22.900Z,1014.78
2019-03-25T05:41:22.837Z,1014.81
2019-03-25T05:42:22.794Z,1014.82
2019-03-25T05:43:22.769Z,1014.80
2019-03-25T05:44:22.748Z,1014.80
2019-03-25T05:45:22.679Z,1014.78
2019-03-25T05:46:22.646Z,1014.85
2019-03-25T05:47:22.601Z,1014.91
2019-03-25T05:48:22.662Z,1014.91
2019-03-25T05:49:22.518Z,1014.87
2019-03-25T05:50:22.478Z,1014.91
2019-03-25T05:51:22.437Z,1014.87
2019-03-25T05:52:22.386Z,1014.87
2019-03-25T05:53:22.349Z,1014.86
2019-03-25T05:54:22.279Z,1014.86
2019-03-25T05:55:22.235Z,1014.88
2019-03-25T05:56:22.182Z,1014.88
2019-03-25T05:57:22.194Z,1014.89
2019-03-25T05:58:22.109Z,1014.89
2019-03-25T05:59:22.076Z,1014.79
2019-03-25T06:00:21.995Z,1014.89
2019-03-25T06:01:21.996Z,1014.89
2019-03-25T06:02:21.962Z,1014.91
2019-03-25T06:03:21.908Z,1014.88
2019-03-25T06:04:21.868Z,1014.93
2019-03-25T06:05:21.813Z,1014.88
2019-03-25T06:06:21.742Z,1014.93
2019-03-25T06:07:21.716Z,1014.97
2019-03-25T06:08:21.657Z,1014.95
2019-03-25T06:09:21.626Z,1014.92
2019-03-25T06:10:21.607Z,1014.99
2019-03-25T06:11:21.547Z,1014.97
2019-03-25T06:12:21.528Z,1015.01
2019-03-25T06:13:21.498Z,1015.07
2019-03-25T06:14:21.426Z,1014.96
2019-03-25T06:15:21.352Z,1015.07
2019-03-25T06:16:21.312Z,1015.04
2019-03-25T06:17:21.265Z,1015.07
2019-03-25T06:18:21.276Z,1015.07
2019-03-25T06:19:21.179Z,1015.17
2019-03-25T06:20:21.147Z,1015.13
2019-03-25T06:21:21.096Z,1015.08
2019-03-25T06:22:21.095Z,1015.09
2019-03-25T06:23:21.018Z,1015.13
2019-03-25T06:24:20.984Z,1015.17
2019-03-25T06:25:20.923Z,1015.26
2019-03-25T06:26:20.876Z,1015.18
2019-03-25T06:27:20.829Z,1015.14
2019-03-25T06:28:20.851Z,1015.10
2019-03-25T06:29:20.765Z,1015.09
2019-03-25T06:30:20.710Z,1015.13
2019-03-25T06:31:20.679Z,1015.12
2019-03-25T06:32:20.615Z,1015.13
2019-03-25T06:33:20.587Z,1015.10
2019-03-25T06:34:20.576Z,1015.10
2019-03-25T06:35:20.496Z,1015.12
2019-03-25T06:36:20.471Z,1015.18
2019-03-25T06:37:20.405Z,1015.22
2019-03-25T06:38:20.377Z,1015.23
2019-03-25T06:39:20.343Z,1015.19
2019-03-25T06:40:20.311Z,1015.18
2019-03-25T06:41:20.264Z,1015.16
2019-03-25T06:42:20.215Z,1015.21
2019-03-25T06:43:20.231Z,1015.15
2019-03-25T06:44:20.128Z,1015.21
2019-03-25T06:45:20.087Z,1015.26
2019-03-25T06:46:22.179Z,1015.45
2019-03-25T06:47:19.992Z,1015.42
2019-03-25T06:48:19.970Z,1015.42
2019-03-25T06:49:20.128Z,1015.31
2019-03-25T06:50:19.888Z,1015.32
2019-03-25T06:51:19.837Z,1015.22
2019-03-25T06:52:19.798Z,1015.25
2019-03-25T06:53:19.756Z,1015.34
2019-03-25T06:54:19.680Z,1015.40
2019-03-25T06:55:19.693Z,1015.51
2019-03-25T06:56:19.629Z,1015.46
2019-03-25T06:57:25.465Z,1015.49
2019-03-25T06:58:19.549Z,1015.45
2019-03-25T06:59:19.482Z,1015.51
2019-03-25T07:00:19.459Z,1015.59
2019-03-25T07:01:19.410Z,1015.54
2019-03-25T07:02:19.343Z,1015.51
2019-03-25T07:03:19.281Z,1015.53
2019-03-25T07:04:19.245Z,1015.49
2019-03-25T07:05:19.227Z,1015.51
2019-03-25T07:06:19.235Z,1015.48
2019-03-25T07:07:19.123Z,1015.33
2019-03-25T07:08:19.128Z,1015.37
2019-03-25T07:09:19.075Z,1015.33
2019-03-25T07:10:19.003Z,1015.27
2019-03-25T07:11:18.977Z,1015.31
2019-03-25T07:12:18.927Z,1015.32
2019-03-25T07:13:18.891Z,1015.36
2019-03-25T07:14:18.845Z,1015.33
2019-03-25T07:15:18.793Z,1015.33
2019-03-25T07:16:18.745Z,1015.31
2019-03-25T07:17:18.729Z,1015.33
2019-03-25T07:18:18.680Z,1015.28
2019-03-25T07:19:18.633Z,1015.35
2019-03-25T07:20:18.621Z,1015.30
2019-03-25T07:21:20.512Z,1015.35
2019-03-25T07:22:18.562Z,1015.33
2019-03-25T07:23:18.461Z,1015.34
2019-03-25T07:24:18.445Z,1015.37
2019-03-25T07:25:18.375Z,1015.33
2019-03-25T07:26:18.364Z,1015.34
2019-03-25T07:27:18.315Z,1015.34
2019-03-25T07:28:18.293Z,1015.26
2019-03-25T07:29:18.238Z,1015.30
2019-03-25T07:30:18.233Z,1015.31
2019-03-25T07:31:18.155Z,1015.31
2019-03-25T07:32:18.133Z,1015.24
2019-03-25T07:33:18.106Z,1015.23
2019-03-25T07:34:18.022Z,1015.30
2019-03-25T07:35:18.017Z,1015.36
2019-03-25T07:36:17.984Z,1015.45
2019-03-25T07:37:17.886Z,1015.45
2019-03-25T07:38:17.895Z,1015.44
2019-03-25T07:39:17.808Z,1015.41
2019-03-25T07:40:17.826Z,1015.32
2019-03-25T07:41:17.764Z,1015.43
2019-03-25T07:42:17.688Z,1015.44
2019-03-25T07:43:17.664Z,1015.56
2019-03-25T07:44:17.602Z,1016.13
2019-03-25T07:45:17.561Z,1016.06
2019-03-25T07:46:17.676Z,1015.49
2019-03-25T07:47:17.486Z,1015.50
2019-03-25T07:48:17.480Z,1016.00
2019-03-25T07:49:17.404Z,1016.32
2019-03-25T07:50:17.374Z,1016.28
2019-03-25T07:51:17.324Z,1015.89
2019-03-25T07:52:17.273Z,1016.21
2019-03-25T07:53:17.234Z,1016.53
2019-03-25T07:54:17.175Z,1016.54
2019-03-25T07:55:17.176Z,1015.65
2019-03-25T07:56:17.108Z,1015.57
2019-03-25T07:57:17.080Z,1016.30
2019-03-25T07:58:17.032Z,1015.59
2019-03-25T07:59:19.054Z,1015.53
2019-03-25T08:00:16.926Z,1015.57
2019-03-25T08:01:16.932Z,1015.59
2019-03-25T08:02:16.846Z,1015.56
2019-03-25T08:03:16.911Z,1015.56
2019-03-25T08:04:16.774Z,1015.57
2019-03-25T08:05:16.731Z,1015.65
2019-03-25T08:06:16.997Z,1015.62
2019-03-25T08:07:16.671Z,1015.73
2019-03-25T08:08:16.600Z,1017.25
2019-03-25T08:09:16.589Z,1015.99
2019-03-25T08:10:16.577Z,1016.51
2019-03-25T08:11:16.524Z,1017.09
2019-03-25T08:12:16.439Z,1015.70
2019-03-25T08:13:16.490Z,1016.93
2019-03-25T08:14:16.350Z,1016.96
2019-03-25T08:15:16.336Z,1015.70
2019-03-25T08:16:16.280Z,1015.72
2019-03-25T08:17:16.261Z,1015.76
2019-03-25T08:18:16.201Z,1015.91
2019-03-25T08:19:16.163Z,1015.66
2019-03-25T08:20:16.117Z,1015.65
2019-03-25T08:21:16.077Z,1015.55
2019-03-25T08:22:16.046Z,1015.53
2019-03-25T08:23:16.047Z,1015.55
2019-03-25T08:24:15.973Z,1015.49
2019-03-25T08:25:15.929Z,1015.48
2019-03-25T08:26:15.891Z,1015.39
2019-03-25T08:27:15.848Z,1015.46
2019-03-25T08:28:15.807Z,1015.46
2019-03-25T08:29:15.788Z,1015.37
2019-03-25T08:30:15.746Z,1015.44
2019-03-25T08:31:15.766Z,1015.47
2019-03-25T08:32:15.651Z,1015.47
2019-03-25T08:33:15.642Z,1015.48
2019-03-25T08:34:15.569Z,1015.44
2019-03-25T08:35:15.532Z,1015.41
2019-03-25T08:36:15.501Z,1015.44
2019-03-25T08:37:15.457Z,1015.45
2019-03-25T08:38:15.407Z,1015.43
2019-03-25T08:39:15.387Z,1015.39
2019-03-25T08:40:15.327Z,1015.47
2019-03-25T08:41:15.367Z,1015.43
2019-03-25T08:42:15.337Z,1015.44
2019-03-25T08:43:15.209Z,1015.49
2019-03-25T08:44:15.193Z,1015.53
2019-03-25T08:45:15.125Z,1015.52
2019-03-25T08:46:15.105Z,1015.41
2019-03-25T08:47:15.037Z,1015.45
2019-03-25T08:48:15.000Z,1015.48
2019-03-25T08:49:14.990Z,1015.46
2019-03-25T08:50:14.991Z,1015.48
2019-03-25T08:51:14.912Z,1015.51
2019-03-25T08:52:14.832Z,1015.49
2019-03-25T08:53:14.789Z,1015.49
2019-03-25T08:54:14.846Z,1015.38
2019-03-25T08:55:14.713Z,1015.43
2019-03-25T08:56:14.756Z,1015.49
2019-03-25T08:57:14.649Z,1015.56
2019-03-25T08:58:14.580Z,1015.39
2019-03-25T08:59:14.857Z,1015.55
2019-03-25T09:00:14.499Z,1015.50
2019-03-25T09:01:14.463Z,1015.53
2019-03-25T09:02:14.448Z,1015.65
2019-03-25T09:03:14.373Z,1015.64
2019-03-25T09:04:14.376Z,1015.60
2019-03-25T09:05:14.292Z,1015.72
2019-03-25T09:06:14.245Z,1015.98
2019-03-25T09:07:14.201Z,1015.87
2019-03-25T09:08:14.164Z,1015.95
2019-03-25T09:09:14.143Z,1015.91
2019-03-25T09:10:14.099Z,1015.78
2019-03-25T09:11:14.031Z,1016.07
2019-03-25T09:12:14.004Z,1016.19
2019-03-25T09:13:13.947Z,1015.87
2019-03-25T09:14:13.912Z,1015.94
2019-03-25T09:15:13.903Z,1015.93
2019-03-25T09:16:13.853Z,1015.94
2019-03-25T09:17:13.786Z,1015.99
2019-03-25T09:18:13.737Z,1016.57
2019-03-25T09:19:13.711Z,1015.96
2019-03-25T09:20:13.663Z,1015.92
2019-03-25T09:21:13.630Z,1015.92
2019-03-25T09:22:13.587Z,1015.96
2019-03-25T09:23:13.552Z,1016.05
2019-03-25T09:24:13.491Z,1016.03
2019-03-25T09:25:13.446Z,1015.98
2019-03-25T09:26:14.189Z,1016.03
2019-03-25T09:27:13.375Z,1015.95
2019-03-25T09:28:23.686Z,1016.12
2019-03-25T09:29:13.285Z,1016.54
2019-03-25T09:30:13.242Z,1016.67
2019-03-25T09:31:13.236Z,1016.37
2019-03-25T09:32:13.164Z,1016.07
2019-03-25T09:33:13.113Z,1016.07
2019-03-25T09:34:13.086Z,1016.00
2019-03-25T09:35:13.042Z,1016.11
2019-03-25T09:36:13.006Z,1016.08
2019-03-25T09:37:13.076Z,1016.09
2019-03-25T09:38:12.943Z,1016.15
2019-03-25T09:39:12.875Z,1016.36
2019-03-25T09:40:12.846Z,1016.67
2019-03-25T09:41:12.806Z,1016.75
2019-03-25T09:42:12.778Z,1016.77
2019-03-25T09:43:12.718Z,1016.15
2019-03-25T09:44:12.671Z,1016.08
2019-03-25T09:45:12.639Z,1016.12
2019-03-25T09:46:12.622Z,1016.11
2019-03-25T09:47:12.563Z,1016.12
2019-03-25T09:48:12.533Z,1016.24
2019-03-25T09:49:12.494Z,1016.22
2019-03-25T09:50:12.446Z,1016.10
2019-03-25T09:51:12.426Z,1016.01
2019-03-25T09:52:12.362Z,1016.10
2019-03-25T09:53:12.323Z,1016.01
2019-03-25T09:54:12.291Z,1015.98
2019-03-25T09:55:12.252Z,1015.97
2019-03-25T09:56:12.234Z,1016.24
2019-03-25T09:57:12.193Z,1016.11
2019-03-25T09:58:12.135Z,1016.08
2019-03-25T09:59:12.094Z,1016.06
2019-03-25T10:00:12.057Z,1016.07
2019-03-25T10:01:12.073Z,1015.99
2019-03-25T10:02:11.972Z,1016.18
2019-03-25T10:03:11.928Z,1016.28
2019-03-25T10:04:11.909Z,1016.86
2019-03-25T10:05:11.848Z,1016.99
2019-03-25T10:06:11.825Z,1016.32
2019-03-25T10:07:11.814Z,1016.54
2019-03-25T10:08:11.892Z,1016.49
2019-03-25T10:09:11.696Z,1016.63
2019-03-25T10:10:11.677Z,1016.34
2019-03-25T10:11:11.614Z,1016.67
2019-03-25T10:12:11.604Z,1016.28
2019-03-25T10:13:11.555Z,1016.49
2019-03-25T10:14:11.517Z,1016.85
2019-03-25T10:15:11.457Z,1016.46
2019-03-25T10:16:11.413Z,1016.42
2019-03-25T10:17:11.381Z,1016.29
2019-03-25T10:18:11.343Z,1016.50
2019-03-25T10:19:11.308Z,1016.35
2019-03-25T10:20:11.301Z,1016.21
2019-03-25T10:21:11.230Z,1016.14
2019-03-25T10:22:11.187Z,1016.37
2019-03-25T10:23:11.143Z,1016.35
2019-03-25T10:24:11.121Z,1016.57
2019-03-25T10:25:11.093Z,1016.67
2019-03-25T10:26:11.049Z,1016.58
2019-03-25T10:27:11.005Z,1016.58
2019-03-25T10:28:10.951Z,1016.54
2019-03-25T10:29:10.930Z,1016.81
2019-03-25T10:30:10.877Z,1017.22
2019-03-25T10:31:10.869Z,1017.27
2019-03-25T10:32:10.807Z,1017.19
2019-03-25T10:33:10.795Z,1017.26
2019-03-25T10:34:10.713Z,1017.27
2019-03-25T10:35:10.704Z,1017.34
2019-03-25T10:36:10.652Z,1017.31
2019-03-25T10:37:10.594Z,1017.29
2019-03-25T10:38:19.099Z,1017.27
2019-03-25T10:39:10.548Z,1017.26
2019-03-25T10:40:10.484Z,1017.21
2019-03-25T10:41:10.443Z,1017.31
2019-03-25T10:42:10.483Z,1017.27
2019-03-25T10:43:10.360Z,1017.20
2019-03-25T10:44:10.352Z,1017.26
2019-03-25T10:45:10.322Z,1017.31
2019-03-25T10:46:10.251Z,1017.28
2019-03-25T10:47:10.207Z,1017.30
2019-03-25T10:48:10.179Z,1017.36
2019-03-25T10:49:10.143Z,1017.24
2019-03-25T10:50:10.133Z,1017.31
2019-03-25T10:51:10.072Z,1017.26
2019-03-25T10:52:10.032Z,1017.28
2019-03-25T10:53:10.053Z,1017.34
2019-03-25T10:54:09.951Z,1017.22
2019-03-25T10:55:09.927Z,1017.28
2019-03-25T10:56:09.910Z,1017.30
2019-03-25T10:57:09.844Z,1017.20
2019-03-25T10:58:09.812Z,1017.28
2019-03-25T10:59:09.783Z,1017.33
2019-03-25T11:00:09.738Z,1016.81
2019-03-25T11:01:09.726Z,1017.28
2019-03-25T11:02:09.700Z,1016.95
2019-03-25T11:03:09.643Z,1017.18
2019-03-25T11:04:09.604Z,1017.27
2019-03-25T11:05:09.597Z,1017.51
2019-03-25T11:06:09.610Z,1017.08
2019-03-25T11:07:09.591Z,1017.02
2019-03-25T11:08:09.461Z,1017.12
2019-03-25T11:09:09.416Z,1016.97
2019-03-25T11:10:09.398Z,1017.58
2019-03-25T11:11:09.372Z,1016.86
2019-03-25T11:12:09.323Z,1016.72
2019-03-25T11:13:09.312Z,1016.72
2019-03-25T11:14:09.259Z,1016.74
2019-03-25T11:15:09.215Z,1016.65
2019-03-25T11:16:10.397Z,1016.59
2019-03-25T11:17:09.151Z,1016.70
2019-03-25T11:18:09.110Z,1016.69
2019-03-25T11:19:09.068Z,1016.67
2019-03-25T11:20:09.043Z,1016.60
2019-03-25T11:21:09.000Z,1016.75
2019-03-25T11:22:08.994Z,1016.69
2019-03-25T11:23:08.933Z,1016.75
2019-03-25T11:24:08.902Z,1016.74
2019-03-25T11:25:08.862Z,1017.21
2019-03-25T11:26:08.816Z,1016.65
2019-03-25T11:27:08.803Z,1016.54
2019-03-25T11:28:08.743Z,1016.51
2019-03-25T11:29:08.973Z,1016.58
2019-03-25T11:30:08.672Z,1016.61
2019-03-25T11:31:08.640Z,1016.69
2019-03-25T11:32:08.629Z,1016.82
2019-03-25T11:33:08.558Z,1016.85
2019-03-25T11:34:08.518Z,1017.06
2019-03-25T11:35:08.506Z,1017.04
2019-03-25T11:36:08.446Z,1017.19
2019-03-25T11:37:08.415Z,1017.06
2019-03-25T11:38:08.399Z,1017.11
2019-03-25T11:39:08.476Z,1017.14
2019-03-25T11:40:08.455Z,1017.42
2019-03-25T11:41:08.239Z,1017.52
2019-03-25T11:42:10.228Z,1017.24
2019-03-25T11:43:08.324Z,1017.32
2019-03-25T11:44:08.154Z,1017.42
2019-03-25T11:45:08.083Z,1017.50
2019-03-25T11:46:08.043Z,1017.54
2019-03-25T11:47:07.998Z,1017.56
2019-03-25T11:48:07.965Z,1017.53
2019-03-25T11:49:07.937Z,1017.55
2019-03-25T11:50:07.904Z,1017.59
2019-03-25T11:51:07.846Z,1017.61
2019-03-25T11:52:07.807Z,1017.57
2019-03-25T11:53:07.811Z,1017.55
2019-03-25T11:54:07.739Z,1017.61
2019-03-25T11:55:07.725Z,1017.43
2019-03-25T11:56:07.696Z,1017.46
2019-03-25T11:57:07.635Z,1017.35
2019-03-25T11:58:07.579Z,1017.46
2019-03-25T11:59:07.565Z,1017.50
2019-03-25T12:00:07.505Z,1017.56
2019-03-25T12:01:07.471Z,1017.51
2019-03-25T12:02:17.095Z,1017.31
2019-03-25T12:03:07.401Z,1017.42
2019-03-25T12:04:07.383Z,1017.18
2019-03-25T12:05:07.329Z,1017.16